Redan, GA (30074)

01:10 AM EST on februarie 22, 2017 (GMT -0500)
MGA314 | | Change Station

Elev 921 ft 33.71 °N, 84.21 °W | Updated 1 minute ago

Cer acoperit
Cer acoperit
61.0 °F
Feels Like 61.0 °F
N
5.0
Vânt variabil Vânt from ESE
Gusts 10.0 mph

astăzi
High -- | Low -- °F
--% Chance of Precip.
Ieri
High -- | Low -- °F
Precip. -- inch
Presiunea 29.91 inch
Vizibilitatea 10.0 mile
Nori Cer în general noros 2000 ft
Cer acoperit 8000 ft
Punctul de rouă 59 °F
Umiditatea 92%
Precipitaţii 0.10 inch
Adâncimea zăpezii Not available.
7:13 AM 6:27 PM
Semilună în descreştere, 19% visible
METAR KPDK 220553Z AUTO VRB04KT 10SM BKN020 OVC080 16/13 A2993 RMK AO2 RAE29 SLP126 P0000 60006 T01560133 10161 20156 58012
Presiunea 29.91 inch
Vizibilitatea 10.0 mile
Nori Cer în general noros 2000 ft
Cer acoperit 8000 ft
Punctul de rouă 59 °F
Umiditatea 92%
Precipitaţii 0.10 inch
Adâncimea zăpezii Not available.
7:13 AM 6:27 PM
Semilună în descreştere, 19% visible
METAR KPDK 220553Z AUTO VRB04KT 10SM BKN020 OVC080 16/13 A2993 RMK AO2 RAE29 SLP126 P0000 60006 T01560133 10161 20156 58012

Get Your Daily Forecast Email!

Thanks for signing up!

Be on the lookout for a verification email in your inbox.

You'll start receiving the daily forecast at 8 AM.

×

10-Day Weather Forecast

Almanac

Astronomie

Feb. 22, 2017 Răsărit Apus
Timpul Actual
Crepusculul Civil
Crepusculul nautic
Răsărit Astronomic
Luna
Durata zilei lumină
Lungimea zilei
Tomorrow will be .
, % of the Moon is Illuminated

Extremele de azi

State Highs State Lows

Community

WunderPhotos

Upload Photos

1,962,540 photos uploaded!

WunderBlog® & News

Nearby

Calitatea aerului

  Calitatea aerului Index de calitate a aerului Poluat
Not available.

Adâncimea zapezii

Station Depth Elevation

Earthquake Activity

Oraş Distance Mag. Time & Date
Minimum magnitude displayed is 2.5.

Coastal Water Temperatures

Locul Temperatura

Stations

Nearby Weather Stations

Locaţia staţiei Temp Vânt rece Punctul de rouă Umiditatea Vânt Precip. Elev Actualizare Type
                   

Watches & Warnings

There are currently no watches in effect.